Airfield :
LOGIN :

Register | Disclaimer

   EN    FR    IT 

 










Legend :    VFR   Marginal VFR   IFR   Intensive IFR   Very Intensive IFR
Visi :
Ceiling :
>= 8 km
>= 3000ft
5 to 8 km
1000 to 3000 ft
1500m to 5 km
500 to 1000 ft
800 to 1500m
200 to 500 ft
< 800m
< 200 ft
Symbols :   Thunderstorms  Fog  Heavy snow  Heavy precipitations  Wind > 20 kt
SIGMETs :     Misc.  Thunderstorms  Icing  Turbulence  Mountain Waves  Volcanic Ashes







- Airport Elevation : 1966 ft
- IATA code : SGE


EDGS - Siegerland

CURRENT METAR :
  • 240950Z VRB03KT 9999 FEW012 12/11 Q1023

EXPIRED METARs :
  • 240920Z 11004KT 8000 NSC 12/11 Q1023
  • 240850Z VRB03KT 3400 BR NSC 12/11 Q1023
  • 240820Z VRB03KT 3100 BR NSC 11/11 Q1023
  • 240750Z VRB02KT 2800 BR NSC 11/11 Q1023
  • 240720Z 08003KT 2400 BR NSC 11/11 Q1022

TAF TAF EDGS
Valid from the 24 at 09:00 until the 24 at 18:00 UTC


240800Z 2409/2418 06004KT 4000 BR NSC
TEMPO 2409/2410 2500 BR
BECMG 2409/2412 9999
No reported NOTAMs for that airfield.



MET'MAP, your aeronautical weather chart ! - Copyright ORBIFLY December 2007 - Disclaimer

ORBIFLY MET'MAP TEAM :

Programming & Development : Alexandra Zaïnal
Concept & Development : Baudouin d'Aumeries
Co-Development & Prog : Marc-Olivier Méhu
Technical & hardware support : Manuel Goepfert

Contact : metmap@orbifly.com




SOURCES & CREDITS :

   NOAA